Time;durP1;ratioP1;P1;durP2;ratioP2;P2;SDS_P1;SDS_P2;PMS_P1;PMS_P2;Temp;Humidity;BMP_temperature;BMP_pressure;BME280_temperature;BME280_humidity;BME280_pressure;Samples;Min_cycle;Max_cycle;Signal;HPM_P1;HPM_P2
2023/03/26 00:00:55;;;;;;;3.25;2.00;;;;;;;20.04;41.06;100631.25;5050903;28;20028;-75
2023/03/26 00:03:21;;;;;;;9.30;2.17;;;;;;;20.03;40.99;100635.00;5066200;28;20109;-75
2023/03/26 00:05:47;;;;;;;4.65;2.00;;;;;;;19.88;41.17;100624.13;5066006;28;20474;-74
2023/03/26 00:08:12;;;;;;;5.75;2.28;;;;;;;19.85;41.11;100619.13;5050254;28;20049;-75
2023/03/26 00:10:39;;;;;;;4.70;1.92;;;;;;;19.98;41.31;100635.53;5048726;28;20032;-73
2023/03/26 00:13:05;;;;;;;4.63;2.05;;;;;;;19.91;41.46;100621.09;5053009;28;20025;-74
2023/03/26 00:15:31;;;;;;;4.00;1.70;;;;;;;19.77;41.36;100603.84;5048891;28;20128;-74
2023/03/26 00:17:57;;;;;;;3.90;1.83;;;;;;;19.81;41.10;100613.25;5063121;28;20108;-75
2023/03/26 00:20:22;;;;;;;4.53;2.38;;;;;;;19.82;41.35;100620.31;5037549;28;20017;-74
2023/03/26 00:22:52;;;;;;;4.25;1.88;;;;;;;19.67;41.36;100595.19;5069662;28;20035;-74
2023/03/26 00:25:19;;;;;;;3.45;2.13;;;;;;;19.88;41.52;100630.41;5050605;28;20491;-74
2023/03/26 00:27:44;;;;;;;5.20;2.20;;;;;;;19.56;41.30;100584.78;5051225;28;20040;-74
2023/03/26 00:30:10;;;;;;;3.95;1.70;;;;;;;19.72;41.06;100611.66;5052169;28;20035;-74
2023/03/26 00:32:36;;;;;;;6.03;2.05;;;;;;;19.78;40.99;100623.56;5069114;28;20029;-74
2023/03/26 00:35:02;;;;;;;6.75;2.10;;;;;;;19.87;41.45;100639.50;5048607;28;20060;-75
2023/03/26 00:37:29;;;;;;;4.68;1.67;;;;;;;19.71;41.37;100615.38;5063264;28;20024;-75
2023/03/26 00:40:03;;;;;;;4.40;1.67;;;;;;;19.00;41.15;100496.06;5054004;28;20021;-74
2023/03/26 00:42:29;;;;;;;4.45;1.80;;;;;;;19.83;40.95;100632.78;5059004;28;20029;-74
2023/03/26 00:44:57;;;;;;;3.97;1.83;;;;;;;19.49;41.12;100576.56;5047611;28;20034;-75
2023/03/26 00:47:26;;;;;;;3.70;1.45;;;;;;;19.63;41.57;100591.16;5050848;28;20116;-74
2023/03/26 00:49:52;;;;;;;3.95;1.90;;;;;;;19.80;41.20;100616.97;5042886;28;20056;-74
2023/03/26 00:52:18;;;;;;;3.33;1.48;;;;;;;19.79;41.57;100612.59;5052152;28;20025;-74
2023/03/26 00:54:47;;;;;;;3.17;1.50;;;;;;;19.79;41.40;100611.75;5065910;28;20060;-74
2023/03/26 00:57:13;;;;;;;3.33;1.20;;;;;;;19.56;41.48;100577.53;5055481;28;20024;-74
2023/03/26 00:59:41;;;;;;;5.20;1.75;;;;;;;19.76;41.31;100604.88;5056748;28;20037;-74
2023/03/26 01:02:09;;;;;;;3.23;1.53;;;;;;;19.55;41.43;100566.91;5051358;28;20030;-75
2023/03/26 01:04:36;;;;;;;4.43;1.88;;;;;;;19.73;41.40;100599.84;5045498;28;20021;-74
2023/03/26 01:07:10;;;;;;;2.78;1.67;;;;;;;19.71;41.47;100602.72;5059327;28;20052;-74
2023/03/26 01:09:41;;;;;;;3.10;1.65;;;;;;;19.49;41.45;100568.47;5070503;28;20018;-73
2023/03/26 01:12:10;;;;;;;6.38;2.25;;;;;;;19.49;41.61;100577.38;5060064;28;20150;-74
2023/03/26 01:14:36;;;;;;;2.42;1.40;;;;;;;19.67;41.42;100590.63;5046842;28;20024;-74
2023/03/26 01:17:04;;;;;;;4.78;1.92;;;;;;;19.51;41.79;100566.44;5062167;28;20033;-74
2023/03/26 01:19:43;;;;;;;4.45;1.95;;;;;;;19.66;41.66;100596.16;5044793;28;20024;-74
2023/03/26 01:22:11;;;;;;;3.28;1.30;;;;;;;19.46;41.84;100567.00;5056696;28;20034;-74
2023/03/26 01:24:38;;;;;;;3.10;1.97;;;;;;;19.63;41.80;100589.31;5060955;28;20036;-73
2023/03/26 01:27:16;;;;;;;5.40;1.83;;;;;;;19.63;41.89;100591.16;5059294;28;20639;-73
2023/03/26 01:29:47;;;;;;;2.53;1.48;;;;;;;19.61;41.89;100583.22;5051975;28;20029;-72
2023/03/26 01:32:13;;;;;;;4.70;1.70;;;;;;;19.60;41.73;100584.22;5065053;28;20033;-74
2023/03/26 01:34:40;;;;;;;4.85;1.73;;;;;;;19.59;41.72;100579.03;5056358;28;20083;-74
2023/03/26 01:37:20;;;;;;;4.35;1.80;;;;;;;19.57;41.60;100579.19;5052267;28;20029;-74
2023/03/26 01:39:55;;;;;;;4.60;1.70;;;;;;;19.56;41.68;100571.28;5062545;28;20029;-74
2023/03/26 01:42:36;;;;;;;3.03;1.70;;;;;;;19.46;41.92;100564.28;5062489;28;20021;-74
2023/03/26 01:45:07;;;;;;;3.90;1.80;;;;;;;19.54;42.11;100568.78;5051889;28;20052;-74
2023/03/26 01:47:33;;;;;;;4.65;1.55;;;;;;;19.53;41.99;100571.66;5049845;28;20101;-73
2023/03/26 01:49:59;;;;;;;3.53;1.40;;;;;;;19.32;41.81;100535.41;5059426;28;20041;-74
2023/03/26 01:52:25;;;;;;;4.63;2.05;;;;;;;19.52;41.79;100561.88;5049914;28;20028;-74
2023/03/26 01:54:53;;;;;;;2.78;1.70;;;;;;;19.08;41.92;100485.25;5054938;28;20120;-74
2023/03/26 01:57:25;;;;;;;3.78;1.50;;;;;;;19.49;42.17;100547.72;5045765;28;20037;-75
2023/03/26 02:00:33;;;;;;;3.22;1.65;;;;;;;18.75;42.10;100416.44;5050093;28;20035;-73
2023/03/26 02:03:16;;;;;;;4.82;1.48;;;;;;;19.46;41.79;100540.03;5040639;28;20057;-74
2023/03/26 02:05:56;;;;;;;3.97;1.60;;;;;;;19.38;41.94;100520.38;5004258;28;20089;-74
2023/03/26 02:09:03;;;;;;;4.63;2.08;;;;;;;19.05;41.73;100466.72;5018531;28;20123;-74
2023/03/26 02:11:29;;;;;;;2.92;1.45;;;;;;;19.12;41.80;100474.94;5037870;28;20045;-74
2023/03/26 02:13:54;;;;;;;3.60;1.50;;;;;;;19.33;42.23;100518.22;5020184;28;20045;-74
2023/03/26 02:16:20;;;;;;;3.85;2.20;;;;;;;19.40;41.94;100524.56;5008573;28;20027;-75
2023/03/26 02:18:50;;;;;;;3.25;1.70;;;;;;;19.40;41.99;100529.13;5041672;28;20518;-74
2023/03/26 02:21:18;;;;;;;3.80;1.65;;;;;;;19.15;41.86;100479.94;5039978;28;20144;-73
2023/03/26 02:23:45;;;;;;;4.43;1.88;;;;;;;19.37;42.07;100514.16;5019686;28;20038;-75
2023/03/26 02:26:11;;;;;;;2.67;1.40;;;;;;;19.31;42.17;100504.06;5018127;28;20057;-74
2023/03/26 02:28:37;;;;;;;3.30;2.08;;;;;;;19.13;41.97;100476.63;5041887;28;20084;-74
2023/03/26 02:31:03;;;;;;;2.92;1.75;;;;;;;19.10;41.90;100466.19;5041430;28;20037;-74
2023/03/26 02:33:29;;;;;;;2.58;1.50;;;;;;;19.33;42.00;100499.38;5026141;28;20052;-74
2023/03/26 02:36:00;;;;;;;2.53;1.30;;;;;;;19.16;42.01;100479.78;5069531;28;20094;-74
2023/03/26 02:38:27;;;;;;;3.03;1.48;;;;;;;18.75;41.93;100406.50;5048245;28;20019;-74
2023/03/26 02:40:53;;;;;;;3.35;1.55;;;;;;;19.30;41.96;100497.03;5048365;28;20025;-73
2023/03/26 02:43:18;;;;;;;2.42;1.40;;;;;;;19.11;42.16;100467.84;5065508;28;20021;-73
2023/03/26 02:45:44;;;;;;;3.22;1.40;;;;;;;18.95;41.99;100437.34;5067550;28;20023;-75
2023/03/26 02:48:09;;;;;;;3.30;1.30;;;;;;;19.25;42.13;100480.56;5047405;28;20064;-74
2023/03/26 02:50:35;;;;;;;3.30;1.60;;;;;;;19.21;42.19;100484.63;5061484;28;20044;-74
2023/03/26 02:53:01;;;;;;;2.40;1.42;;;;;;;18.96;42.21;100433.63;5053363;28;20029;-74
2023/03/26 02:55:27;;;;;;;3.05;1.50;;;;;;;19.23;42.16;100474.50;5050776;28;20021;-74
2023/03/26 02:57:52;;;;;;;2.10;1.33;;;;;;;19.22;42.50;100475.53;5058245;28;20659;-74
2023/03/26 03:00:20;;;;;;;4.10;1.67;;;;;;;19.20;42.43;100473.03;5053882;28;20029;-74
2023/03/26 03:02:46;;;;;;;3.33;1.50;;;;;;;19.20;42.58;100466.78;5060832;28;20032;-74
2023/03/26 03:05:12;;;;;;;4.68;1.60;;;;;;;19.18;42.46;100460.72;5055050;28;20033;-75
2023/03/26 03:07:39;;;;;;;2.55;1.38;;;;;;;18.97;42.13;100435.28;5050573;28;20048;-74
2023/03/26 03:10:08;;;;;;;3.83;1.42;;;;;;;18.72;42.62;100393.41;5057409;28;20523;-75
2023/03/26 03:12:35;;;;;;;3.33;1.55;;;;;;;19.15;42.49;100464.63;5062655;28;20029;-74
2023/03/26 03:15:01;;;;;;;2.42;1.40;;;;;;;19.14;42.22;100460.25;5063132;28;20035;-74
2023/03/26 03:17:26;;;;;;;4.47;1.50;;;;;;;19.14;42.24;100456.72;5048497;28;20030;-74
2023/03/26 03:19:51;;;;;;;3.42;1.63;;;;;;;19.13;42.33;100465.84;5064966;28;20029;-74
2023/03/26 03:22:18;;;;;;;4.57;1.40;;;;;;;19.12;42.42;100462.31;5063818;28;20036;-75
2023/03/26 03:24:44;;;;;;;3.53;1.58;;;;;;;18.97;42.60;100445.22;5053413;28;20060;-74
2023/03/26 03:27:09;;;;;;;4.35;2.05;;;;;;;19.03;42.54;100447.22;5065021;28;20477;-73
2023/03/26 03:29:35;;;;;;;3.00;1.65;;;;;;;19.11;42.50;100457.91;5057959;28;20351;-72
2023/03/26 03:32:01;;;;;;;2.58;1.20;;;;;;;19.00;42.33;100438.66;5062600;28;20033;-74
2023/03/26 03:34:26;;;;;;;5.13;1.85;;;;;;;18.75;42.36;100403.00;5061681;28;20104;-73
2023/03/26 03:36:51;;;;;;;4.80;1.98;;;;;;;19.08;42.53;100450.22;5051590;28;20040;-73
2023/03/26 03:39:16;;;;;;;2.45;1.40;;;;;;;19.11;42.48;100454.38;5060086;28;20033;-74
2023/03/26 03:41:42;;;;;;;3.05;1.50;;;;;;;19.07;42.45;100455.75;5069601;28;20029;-73
2023/03/26 03:44:07;;;;;;;3.67;1.67;;;;;;;19.10;42.36;100448.16;5060335;28;20037;-74
2023/03/26 03:46:32;;;;;;;2.75;1.40;;;;;;;19.11;42.45;100452.53;5063426;28;20104;-73
2023/03/26 03:48:58;;;;;;;2.22;1.52;;;;;;;19.12;42.60;100450.69;5056997;28;20031;-73
2023/03/26 03:51:23;;;;;;;3.70;1.73;;;;;;;19.09;42.68;100433.00;5057528;28;20029;-74
2023/03/26 03:53:49;;;;;;;5.13;1.60;;;;;;;19.13;42.45;100444.28;5051357;28;20100;-73
2023/03/26 03:56:17;;;;;;;2.78;1.48;;;;;;;19.14;42.27;100440.56;5065646;28;20029;-74
2023/03/26 03:58:44;;;;;;;2.58;1.70;;;;;;;19.14;42.42;100440.56;5054717;28;20022;-73
2023/03/26 04:01:12;;;;;;;2.15;1.48;;;;;;;19.14;42.46;100430.59;5050014;28;20033;-74
2023/03/26 04:03:38;;;;;;;3.00;1.33;;;;;;;19.14;42.31;100433.31;5060999;28;20036;-73
2023/03/26 04:06:05;;;;;;;2.67;1.33;;;;;;;18.84;42.47;100389.28;5065910;28;20032;-74
2023/03/26 04:08:31;;;;;;;2.83;1.60;;;;;;;19.04;42.12;100418.41;5037957;28;20029;-73
2023/03/26 04:10:57;;;;;;;3.15;1.60;;;;;;;19.19;42.09;100428.19;5063269;28;20076;-73
2023/03/26 04:13:23;;;;;;;3.33;2.03;;;;;;;19.21;42.14;100428.03;5051750;28;20499;-74
2023/03/26 04:15:51;;;;;;;2.60;1.40;;;;;;;19.21;42.37;100422.66;5065671;28;20040;-74
2023/03/26 04:18:16;;;;;;;3.00;1.42;;;;;;;19.06;42.24;100400.19;5066702;28;20061;-74
2023/03/26 04:20:46;;;;;;;1.90;1.20;;;;;;;19.06;42.45;100384.88;5051798;28;20033;-73
2023/03/26 04:23:13;;;;;;;2.45;1.30;;;;;;;19.25;42.14;100413.19;5065225;28;20026;-74
2023/03/26 04:25:40;;;;;;;2.03;1.23;;;;;;;19.27;41.81;100418.38;5051541;28;20091;-74
2023/03/26 04:28:07;;;;;;;4.45;1.50;;;;;;;19.19;42.23;100403.09;5064254;28;20025;-73
2023/03/26 04:30:33;;;;;;;2.40;1.13;;;;;;;19.29;42.00;100408.25;5062156;28;20059;-73
2023/03/26 04:33:02;;;;;;;3.00;1.70;;;;;;;19.30;42.34;100401.84;5049709;28;20048;-74
2023/03/26 04:35:29;;;;;;;;;;;;;;;19.32;42.11;100395.22;5053273;28;20035;-74
2023/03/26 04:37:55;;;;;;;3.10;1.48;;;;;;;19.19;41.94;100373.47;5047002;28;20358;-74
2023/03/26 04:40:20;;;;;;;3.25;1.30;;;;;;;19.33;41.88;100393.41;5053602;28;20017;-74
2023/03/26 04:42:46;;;;;;;2.70;1.48;;;;;;;19.30;42.04;100391.91;5049470;28;20029;-74
2023/03/26 04:45:13;;;;;;;3.13;1.60;;;;;;;19.08;41.89;100347.81;5061278;28;20032;-75
2023/03/26 04:47:39;;;;;;;3.13;1.67;;;;;;;19.36;41.96;100393.00;5052045;28;20027;-73
2023/03/26 04:50:06;;;;;;;4.32;1.73;;;;;;;19.37;41.63;100384.75;5068904;28;20044;-74
2023/03/26 04:52:32;;;;;;;2.88;1.35;;;;;;;19.39;41.88;100380.00;5060313;28;20062;-72
2023/03/26 04:54:57;;;;;;;2.90;1.33;;;;;;;19.31;42.06;100366.59;5063480;28;20025;-74
2023/03/26 04:57:26;;;;;;;2.88;1.30;;;;;;;19.14;41.79;100333.59;5057217;28;20025;-74
2023/03/26 04:59:52;;;;;;;3.00;1.55;;;;;;;19.43;41.67;100375.09;5052873;28;20040;-74
2023/03/26 05:02:17;;;;;;;2.67;1.48;;;;;;;19.23;41.84;100331.66;5060327;28;20029;-75
2023/03/26 05:04:45;;;;;;;2.22;1.20;;;;;;;19.46;41.86;100370.16;5058699;28;20032;-74
2023/03/26 05:07:16;;;;;;;2.40;1.40;;;;;;;19.30;41.60;100342.53;5072288;28;20072;-74
2023/03/26 05:09:41;;;;;;;2.83;1.55;;;;;;;19.42;41.50;100352.69;5059443;28;20071;-75
2023/03/26 05:12:07;;;;;;;3.08;1.40;;;;;;;19.51;41.74;100358.81;5047060;28;20029;-75
2023/03/26 05:14:32;;;;;;;4.70;1.80;;;;;;;19.45;41.44;100346.06;5060487;28;20463;-74
2023/03/26 05:16:58;;;;;;;4.00;1.40;;;;;;;19.30;41.43;100319.13;5055351;28;20040;-75
2023/03/26 05:19:23;;;;;;;2.80;1.20;;;;;;;19.48;41.50;100343.84;5060857;28;20036;-74
2023/03/26 05:21:49;;;;;;;2.58;1.67;;;;;;;19.35;41.49;100322.09;5050075;28;20033;-73
2023/03/26 05:24:14;;;;;;;3.28;1.70;;;;;;;19.58;41.28;100348.09;5061401;28;20037;-73
2023/03/26 05:26:39;;;;;;;1.52;0.98;;;;;;;19.59;41.46;100345.25;5061505;28;20024;-74
2023/03/26 05:29:05;;;;;;;3.22;1.50;;;;;;;19.56;41.21;100342.91;5053675;28;20036;-75
2023/03/26 05:31:30;;;;;;;2.72;1.88;;;;;;;19.61;41.37;100342.38;5066840;28;20116;-74
2023/03/26 05:33:56;;;;;;;3.08;1.30;;;;;;;19.56;41.52;100326.72;5074369;28;20047;-75
2023/03/26 05:36:22;;;;;;;2.63;1.25;;;;;;;19.48;41.44;100314.19;5069056;28;20037;-75
2023/03/26 05:38:48;;;;;;;3.70;1.55;;;;;;;19.57;41.54;100332.97;5044255;28;20029;-75
2023/03/26 05:41:15;;;;;;;3.28;1.55;;;;;;;19.66;41.17;100332.69;5051343;28;20026;-71
2023/03/26 05:43:40;;;;;;;3.17;1.38;;;;;;;19.68;41.30;100335.22;5058649;28;20047;-73
2023/03/26 05:46:06;;;;;;;3.53;1.70;;;;;;;19.70;41.53;100330.47;5059968;28;20363;-73
2023/03/26 05:48:32;;;;;;;6.40;2.10;;;;;;;19.72;41.50;100331.13;5048122;28;20037;-72
2023/03/26 05:50:57;;;;;;;4.00;1.25;;;;;;;19.63;41.32;100316.91;5054079;28;20032;-72
2023/03/26 05:53:24;;;;;;;3.38;1.20;;;;;;;19.78;41.61;100329.53;5058509;28;20024;-72
2023/03/26 05:55:54;;;;;;;3.30;1.30;;;;;;;19.55;41.35;100287.31;5064950;28;20029;-72
2023/03/26 05:58:20;;;;;;;1.98;1.30;;;;;;;19.76;41.57;100321.63;5058765;28;20031;-71
2023/03/26 06:00:47;;;;;;;2.53;1.30;;;;;;;19.72;41.51;100315.78;5049120;28;20045;-70
2023/03/26 06:03:15;;;;;;;6.10;1.60;;;;;;;19.53;41.48;100283.13;5051707;28;20025;-71
2023/03/26 06:05:41;;;;;;;4.78;1.85;;;;;;;19.80;41.67;100314.84;5062019;28;20610;-71
2023/03/26 06:08:07;;;;;;;2.28;1.10;;;;;;;19.71;41.53;100299.78;5049437;28;20076;-71
2023/03/26 06:10:36;;;;;;;4.57;1.45;;;;;;;19.86;41.68;100305.97;5050067;28;20047;-70
2023/03/26 06:13:01;;;;;;;3.05;1.30;;;;;;;19.62;41.86;100261.28;5049879;28;20063;-70
2023/03/26 06:15:27;;;;;;;3.38;1.67;;;;;;;19.87;41.84;100288.75;5047195;28;20034;-70
2023/03/26 06:17:52;;;;;;;3.15;1.58;;;;;;;19.96;42.12;100293.03;5048029;28;20065;-72
2023/03/26 06:20:17;;;;;;;3.63;1.60;;;;;;;20.04;41.91;100304.72;5049368;28;20036;-70
2023/03/26 06:22:42;;;;;;;4.47;2.13;;;;;;;19.59;42.09;100226.59;5048049;28;20025;-73
2023/03/26 06:25:08;;;;;;;2.67;1.70;;;;;;;19.89;41.76;100267.84;5059006;28;20029;-70
2023/03/26 06:27:33;;;;;;;3.70;1.83;;;;;;;19.88;41.99;100254.53;5050224;28;20033;-70
2023/03/26 06:29:58;;;;;;;4.45;1.50;;;;;;;20.07;41.79;100277.38;5049714;28;20057;-70
2023/03/26 06:32:24;;;;;;;3.45;1.58;;;;;;;19.78;42.07;100227.03;5048237;28;20403;-71
2023/03/26 06:34:49;;;;;;;3.33;1.45;;;;;;;20.17;41.81;100288.66;5052476;28;20036;-70
2023/03/26 06:37:15;;;;;;;3.45;1.58;;;;;;;20.18;41.66;100280.41;5047135;28;20056;-73
2023/03/26 06:39:40;;;;;;;3.90;1.40;;;;;;;20.08;41.96;100257.44;5059134;28;20040;-71
2023/03/26 06:42:06;;;;;;;5.38;1.52;;;;;;;20.06;41.60;100254.94;5049072;28;20046;-72
2023/03/26 06:44:31;;;;;;;5.07;1.65;;;;;;;20.09;41.39;100256.41;5050662;28;20041;-73
2023/03/26 06:46:57;;;;;;;2.90;1.30;;;;;;;20.07;41.81;100250.38;5046379;28;20034;-69
2023/03/26 06:49:22;;;;;;;3.65;1.90;;;;;;;20.11;41.58;100257.06;5050468;28;20084;-70
2023/03/26 06:51:47;;;;;;;6.28;1.60;;;;;;;20.12;41.82;100248.75;5048603;28;20490;-71
2023/03/26 06:54:12;;;;;;;3.25;1.40;;;;;;;20.00;41.46;100223.31;5053081;28;20029;-70
2023/03/26 06:56:38;;;;;;;6.10;2.97;;;;;;;20.05;41.73;100241.63;5046005;28;20021;-71
2023/03/26 06:59:03;;;;;;;5.07;1.92;;;;;;;20.22;41.57;100252.00;5063205;28;20367;-68
2023/03/26 07:01:29;;;;;;;3.67;1.50;;;;;;;20.36;41.75;100279.94;5052699;28;20148;-69
2023/03/26 07:03:54;;;;;;;3.78;1.73;;;;;;;19.83;41.45;100189.53;5050653;28;20029;-72
2023/03/26 07:06:19;;;;;;;4.35;1.73;;;;;;;20.09;41.71;100229.41;5045819;28;20049;-72
2023/03/26 07:08:45;;;;;;;3.20;1.42;;;;;;;20.21;41.67;100244.06;5065104;28;20033;-72
2023/03/26 07:11:11;;;;;;;2.75;1.38;;;;;;;20.23;41.65;100248.25;5053817;28;20029;-72
2023/03/26 07:13:36;;;;;;;4.80;2.00;;;;;;;20.37;41.52;100264.56;5048844;28;20026;-71
2023/03/26 07:16:02;;;;;;;5.53;1.60;;;;;;;20.21;41.64;100235.97;5045297;28;20041;-72
2023/03/26 07:18:27;;;;;;;3.60;1.60;;;;;;;20.44;41.39;100269.00;5068890;28;20064;-72
2023/03/26 07:20:52;;;;;;;3.10;1.60;;;;;;;20.46;41.46;100266.94;5042739;28;20028;-72
2023/03/26 07:23:19;;;;;;;3.78;1.75;;;;;;;20.46;41.07;100269.63;5049903;28;20040;-74
2023/03/26 07:25:47;;;;;;;4.20;1.52;;;;;;;20.48;41.40;100261.41;5057765;28;20032;-75
2023/03/26 07:28:23;;;;;;;5.57;1.85;;;;;;;20.41;41.12;100252.38;5053125;28;20036;-74
2023/03/26 07:30:59;;;;;;;3.92;1.52;;;;;;;20.37;41.19;100248.38;5055769;28;20033;-74
2023/03/26 07:33:43;;;;;;;3.22;1.30;;;;;;;20.30;41.23;100228.56;5050589;28;20104;-74
2023/03/26 07:36:24;;;;;;;6.53;2.00;;;;;;;20.53;40.88;100256.25;5056566;28;20080;-74
2023/03/26 07:38:59;;;;;;;3.75;1.52;;;;;;;20.46;41.11;100247.22;5049396;28;20029;-75
2023/03/26 07:41:47;;;;;;;2.97;1.40;;;;;;;20.37;41.15;100235.72;5047552;28;20028;-75
2023/03/26 07:44:37;;;;;;;2.70;1.35;;;;;;;20.57;40.76;100262.09;5062882;28;20045;-74
2023/03/26 07:47:30;;;;;;;4.78;1.77;;;;;;;20.26;40.88;100206.53;5059575;28;20030;-75
2023/03/26 07:49:58;;;;;;;3.92;1.50;;;;;;;20.31;40.72;100208.66;5061455;28;20035;-77
2023/03/26 07:52:25;;;;;;;5.53;1.77;;;;;;;20.59;40.63;100250.03;5060691;28;20501;-76
2023/03/26 07:54:51;;;;;;;4.78;1.70;;;;;;;20.61;40.95;100253.41;5050830;28;20029;-74
2023/03/26 07:57:30;;;;;;;2.60;1.52;;;;;;;20.39;40.83;100219.31;5052258;28;20112;-75
2023/03/26 08:00:10;;;;;;;4.03;1.80;;;;;;;20.45;40.80;100222.06;5051921;28;20033;-75
2023/03/26 08:02:47;;;;;;;4.35;1.40;;;;;;;20.65;40.76;100254.69;5056119;28;20033;-75
2023/03/26 08:05:52;;;;;;;5.60;1.58;;;;;;;20.22;40.99;100181.81;5051929;28;20486;-75
2023/03/26 08:08:20;;;;;;;4.78;1.92;;;;;;;20.62;40.78;100252.38;5012067;28;20049;-75
2023/03/26 08:10:54;;;;;;;2.70;1.35;;;;;;;20.70;40.73;100254.91;5032272;28;20472;-74
2023/03/26 08:13:47;;;;;;;3.47;1.45;;;;;;;20.74;40.26;100257.25;5008363;28;20136;-74
2023/03/26 08:16:27;;;;;;;5.82;1.80;;;;;;;20.75;40.63;100256.19;5041487;28;20037;-73
2023/03/26 08:19:06;;;;;;;3.33;1.40;;;;;;;20.51;40.63;100211.53;5023250;28;20030;-73
2023/03/26 08:21:38;;;;;;;3.25;1.20;;;;;;;20.77;40.75;100256.81;5040750;28;20041;-75
2023/03/26 08:24:17;;;;;;;3.50;1.35;;;;;;;20.56;40.38;100217.19;5017982;28;20098;-73
2023/03/26 08:26:51;;;;;;;;;;;;;;;20.79;40.24;100244.81;5025796;28;20025;-73
2023/03/26 08:29:28;;;;;;;3.67;1.30;;;;;;;20.81;40.49;100252.69;5040382;28;19931;-73
2023/03/26 08:31:54;;;;;;;4.20;1.85;;;;;;;20.13;40.50;100145.16;5040767;28;20025;-73
2023/03/26 08:34:20;;;;;;;4.13;1.60;;;;;;;20.44;40.17;100192.56;5024920;28;20025;-73
2023/03/26 08:36:45;;;;;;;5.07;1.48;;;;;;;20.84;40.42;100246.91;5032788;28;20043;-72
2023/03/26 08:39:11;;;;;;;3.53;1.23;;;;;;;20.79;40.21;100235.88;5025856;28;20017;-78
2023/03/26 08:41:40;;;;;;;3.92;1.42;;;;;;;20.88;40.12;100238.22;5026807;28;20041;-79
2023/03/26 08:44:23;;;;;;;4.03;1.50;;;;;;;20.89;40.57;100247.97;5061863;28;20079;-79
2023/03/26 08:46:54;;;;;;;2.35;1.20;;;;;;;20.90;40.24;100244.25;5053677;28;20013;-78
2023/03/26 08:49:37;;;;;;;2.50;1.10;;;;;;;20.90;40.19;100246.97;5054852;28;20029;-79
2023/03/26 08:52:27;;;;;;;7.15;1.40;;;;;;;20.93;40.54;100251.13;5058622;28;20026;-71
2023/03/26 08:55:07;;;;;;;3.85;1.25;;;;;;;20.92;40.40;100253.00;5053138;28;20021;-71
2023/03/26 08:58:23;;;;;;;3.05;1.33;;;;;;;20.80;40.61;100224.00;5051903;28;20017;-72
2023/03/26 09:01:36;;;;;;;3.00;1.27;;;;;;;20.94;40.55;100248.25;5032623;28;20036;-70
2023/03/26 09:04:26;;;;;;;2.17;1.10;;;;;;;20.46;40.58;100164.31;5022425;28;20053;-70
2023/03/26 09:07:19;;;;;;;2.53;1.10;;;;;;;20.96;40.63;100245.34;5004228;28;20054;-71
2023/03/26 09:10:01;;;;;;;2.83;1.23;;;;;;;20.96;40.54;100246.16;5021652;28;20049;-72
2023/03/26 09:12:54;;;;;;;2.00;1.17;;;;;;;20.96;40.25;100246.16;5005226;28;20780;-72
2023/03/26 09:15:51;;;;;;;2.95;1.50;;;;;;;20.96;40.42;100246.16;5021351;28;20038;-71
2023/03/26 09:18:23;;;;;;;3.35;1.38;;;;;;;20.99;40.50;100252.22;4996440;28;20042;-72
2023/03/26 09:21:16;;;;;;;3.92;1.58;;;;;;;20.96;40.26;100246.16;5022056;28;20038;-72
2023/03/26 09:23:51;;;;;;;3.40;1.55;;;;;;;20.99;40.35;100253.06;5021770;28;20062;-73
2023/03/26 09:26:23;;;;;;;2.38;1.20;;;;;;;21.00;40.19;100245.78;5003196;28;20034;-73
2023/03/26 09:29:26;;;;;;;1.10;0.80;;;;;;;21.01;40.30;100248.25;5005522;28;20041;-75
2023/03/26 09:32:32;;;;;;;2.47;1.45;;;;;;;21.00;40.19;100241.19;5023296;28;20101;-77
2023/03/26 09:35:27;;;;;;;2.70;1.17;;;;;;;20.77;40.45;100203.63;4981678;28;20065;-77
2023/03/26 09:38:30;;;;;;;2.53;1.00;;;;;;;21.01;40.42;100250.97;4985895;28;20042;-76
2023/03/26 09:41:12;;;;;;;1.77;1.00;;;;;;;21.02;40.50;100243.69;5018970;28;20042;-79
2023/03/26 09:43:51;;;;;;;5.15;1.10;;;;;;;21.02;40.32;100247.22;5000794;28;20064;-80
2023/03/26 09:46:55;;;;;;;1.63;1.05;;;;;;;21.02;40.30;100243.69;5021040;28;20049;-76
2023/03/26 09:49:33;;;;;;;3.38;1.05;;;;;;;20.70;40.19;100194.66;4998013;28;20088;-79
2023/03/26 09:52:13;;;;;;;2.25;1.15;;;;;;;21.05;40.39;100251.41;5001413;28;20046;-80
2023/03/26 09:54:50;;;;;;;2.65;1.35;;;;;;;20.83;40.13;100212.81;5000919;28;20057;-80
2023/03/26 09:57:26;;;;;;;2.63;1.02;;;;;;;20.64;40.16;100182.75;5001832;28;20041;-76
2023/03/26 10:00:09;;;;;;;3.63;1.20;;;;;;;21.01;39.87;100242.84;4967823;28;20034;-76
2023/03/26 10:03:03;;;;;;;3.08;1.10;;;;;;;21.10;40.05;100251.66;5001496;28;20050;-74
2023/03/26 10:05:42;;;;;;;2.20;1.20;;;;;;;20.78;40.01;100201.78;4961167;28;20031;-75
2023/03/26 10:08:46;;;;;;;3.15;1.20;;;;;;;21.13;39.88;100259.38;4967225;28;20134;-72
2023/03/26 10:11:21;;;;;;;6.97;1.30;;;;;;;20.88;40.31;100219.28;4970746;28;20067;-71
2023/03/26 10:14:11;;;;;;;5.97;2.17;;;;;;;21.11;40.03;100259.56;4951885;28;20037;-72
2023/03/26 10:16:45;;;;;;;5.28;1.80;;;;;;;21.18;40.29;100263.13;4964063;28;20046;-71
2023/03/26 10:19:29;;;;;;;4.47;2.28;;;;;;;21.20;40.21;100266.47;4971533;28;20113;-70
2023/03/26 10:22:02;;;;;;;5.25;1.83;;;;;;;21.16;40.43;100253.56;4968899;28;20043;-72
2023/03/26 10:24:47;;;;;;;5.63;2.10;;;;;;;21.21;40.39;100260.03;4988574;28;20046;-73
2023/03/26 10:27:33;;;;;;;6.45;2.67;;;;;;;21.24;40.22;100258.81;4975674;28;20018;-73
2023/03/26 10:30:11;;;;;;;6.93;2.38;;;;;;;21.13;40.30;100241.28;4974897;28;20543;-71
2023/03/26 10:33:05;;;;;;;5.75;2.85;;;;;;;21.28;40.19;100270.03;4959741;28;20026;-71
2023/03/26 10:36:00;;;;;;;6.63;2.88;;;;;;;21.28;40.27;100268.19;4974359;28;20515;-71
2023/03/26 10:38:59;;;;;;;4.15;2.25;;;;;;;21.31;40.40;100267.78;4975449;28;20042;-72
2023/03/26 10:41:54;;;;;;;5.97;2.85;;;;;;;20.72;39.88;100170.97;4994746;28;20057;-71
2023/03/26 10:44:42;;;;;;;7.90;2.90;;;;;;;21.36;40.28;100270.75;5028546;28;20038;-73
2023/03/26 10:47:32;;;;;;;7.10;2.72;;;;;;;21.38;39.90;100274.09;5027252;28;20085;-71
2023/03/26 10:50:25;;;;;;;7.07;3.08;;;;;;;21.42;39.95;100282.66;5025998;28;20034;-72
2023/03/26 10:52:58;;;;;;;5.15;2.28;;;;;;;21.38;39.76;100263.28;5016933;28;20033;-77
2023/03/26 10:55:44;;;;;;;5.65;2.78;;;;;;;21.31;40.00;100256.97;5022865;28;20033;-78
2023/03/26 10:58:32;;;;;;;7.90;2.80;;;;;;;21.18;39.78;100224.44;5027599;28;20061;-75
2023/03/26 11:01:10;;;;;;;9.75;2.70;;;;;;;21.06;40.04;100207.94;5018453;28;20026;-80
2023/03/26 11:03:45;;;;;;;7.70;3.20;;;;;;;21.42;39.87;100275.38;5019903;28;20033;-79
2023/03/26 11:06:26;;;;;;;7.40;2.83;;;;;;;21.27;39.75;100254.84;5029298;28;20025;-81
2023/03/26 11:09:00;;;;;;;7.28;3.15;;;;;;;21.34;39.57;100256.59;5023046;28;20030;-80
2023/03/26 11:11:48;;;;;;;6.68;2.55;;;;;;;21.49;39.61;100274.53;5029495;28;20079;-79
2023/03/26 11:14:30;;;;;;;7.45;3.38;;;;;;;21.50;39.58;100281.66;5023360;28;20038;-81
2023/03/26 11:17:16;;;;;;;8.68;2.80;;;;;;;21.20;39.85;100244.84;5023716;28;20026;-78
2023/03/26 11:19:44;;;;;;;8.40;3.08;;;;;;;21.51;39.75;100284.16;5018439;28;20087;-80
2023/03/26 11:22:37;;;;;;;6.07;2.50;;;;;;;21.51;39.47;100280.59;5057428;28;20041;-80
2023/03/26 11:25:27;;;;;;;6.43;2.67;;;;;;;21.50;39.61;100287.06;5045137;28;20132;-79
2023/03/26 11:28:22;;;;;;;6.07;2.60;;;;;;;21.51;39.71;100289.56;5058112;28;20025;-79
2023/03/26 11:30:54;;;;;;;7.45;3.15;;;;;;;21.36;39.59;100273.44;5055157;28;20017;-78
2023/03/26 11:33:25;;;;;;;5.97;3.10;;;;;;;21.37;39.21;100275.13;5045978;28;20021;-79
2023/03/26 11:35:54;;;;;;;7.07;2.83;;;;;;;21.23;39.47;100249.84;5062373;28;20037;-80
2023/03/26 11:38:28;;;;;;;6.18;3.13;;;;;;;21.05;39.18;100210.88;5059098;28;20057;-80
2023/03/26 11:40:55;;;;;;;6.80;2.65;;;;;;;21.25;39.19;100238.03;5059814;28;20025;-80
2023/03/26 11:43:24;;;;;;;5.03;2.40;;;;;;;21.38;39.14;100263.28;5064653;28;20032;-80
2023/03/26 11:45:50;;;;;;;6.75;3.00;;;;;;;21.63;39.36;100304.19;5061373;28;20025;-79
2023/03/26 11:48:35;;;;;;;7.25;2.63;;;;;;;21.56;39.11;100287.06;5057439;28;20029;-81
2023/03/26 11:51:10;;;;;;;4.38;2.17;;;;;;;21.70;39.00;100306.91;5052849;28;20050;-80